createdAt,value
2022-12-12T00:01:13.011Z,100.00
2022-12-12T00:03:40.483Z,100.00
2022-12-12T00:06:07.754Z,100.00
2022-12-12T00:08:34.864Z,100.00
2022-12-12T00:11:02.045Z,100.00
2022-12-12T00:13:29.140Z,100.00
2022-12-12T00:15:56.315Z,100.00
2022-12-12T00:18:23.391Z,100.00
2022-12-12T00:20:55.875Z,100.00
2022-12-12T00:23:24.848Z,100.00
2022-12-12T00:25:57.794Z,100.00
2022-12-12T00:28:25.491Z,100.00
2022-12-12T00:30:53.181Z,100.00
2022-12-12T00:33:20.187Z,100.00
2022-12-12T00:35:51.348Z,100.00
2022-12-12T00:38:19.187Z,100.00
2022-12-12T00:40:47.447Z,100.00
2022-12-12T00:43:14.777Z,100.00
2022-12-12T00:45:41.995Z,100.00
2022-12-12T00:48:10.163Z,100.00
2022-12-12T00:50:38.002Z,100.00
2022-12-12T00:53:05.268Z,100.00
2022-12-12T00:55:32.507Z,100.00
2022-12-12T00:58:00.406Z,100.00
2022-12-12T01:00:27.496Z,100.00
2022-12-12T01:02:57.686Z,100.00
2022-12-12T01:05:25.594Z,100.00
2022-12-12T01:07:52.934Z,100.00
2022-12-12T01:10:20.113Z,100.00
2022-12-12T01:12:47.321Z,100.00
2022-12-12T01:15:15.016Z,100.00
2022-12-12T01:17:42.150Z,100.00
2022-12-12T01:20:17.043Z,100.00
2022-12-12T01:22:44.409Z,100.00
2022-12-12T01:25:15.893Z,100.00
2022-12-12T01:27:43.818Z,100.00
2022-12-12T01:30:13.888Z,100.00
2022-12-12T01:32:41.100Z,100.00
2022-12-12T01:35:08.589Z,100.00
2022-12-12T01:37:36.603Z,100.00
2022-12-12T01:40:06.222Z,100.00
2022-12-12T01:42:33.361Z,100.00
2022-12-12T01:45:01.503Z,100.00
2022-12-12T01:47:28.701Z,100.00
2022-12-12T01:50:06.167Z,100.00
2022-12-12T01:52:41.799Z,100.00
2022-12-12T01:55:15.616Z,100.00
2022-12-12T01:57:47.452Z,100.00
2022-12-12T02:00:15.656Z,100.00
2022-12-12T02:02:46.459Z,100.00
2022-12-12T02:05:42.527Z,100.00
2022-12-12T02:08:11.218Z,100.00
2022-12-12T02:10:38.808Z,100.00
2022-12-12T02:13:10.259Z,100.00
2022-12-12T02:15:44.831Z,100.00
2022-12-12T02:18:20.473Z,100.00
2022-12-12T02:21:04.609Z,100.00
2022-12-12T02:24:09.699Z,100.00
2022-12-12T02:26:51.638Z,100.00
2022-12-12T02:29:31.111Z,100.00
2022-12-12T02:32:19.835Z,100.00
2022-12-12T02:35:28.297Z,100.00
2022-12-12T02:38:07.331Z,100.00
2022-12-12T02:40:53.779Z,100.00
2022-12-12T02:43:57.992Z,100.00
2022-12-12T02:46:53.583Z,100.00
2022-12-12T02:49:37.050Z,100.00
2022-12-12T02:52:07.372Z,100.00
2022-12-12T02:54:35.040Z,100.00
2022-12-12T02:57:03.258Z,100.00
2022-12-12T02:59:34.579Z,100.00
2022-12-12T03:02:13.902Z,100.00
2022-12-12T03:05:09.375Z,100.00
2022-12-12T03:07:53.680Z,100.00
2022-12-12T03:10:29.900Z,100.00
2022-12-12T03:13:01.003Z,100.00
2022-12-12T03:15:39.088Z,100.00
2022-12-12T03:18:30.246Z,100.00
2022-12-12T03:21:15.048Z,100.00
2022-12-12T03:23:46.702Z,100.00
2022-12-12T03:26:24.923Z,100.00
2022-12-12T03:29:22.447Z,100.00
2022-12-12T03:31:56.217Z,100.00
2022-12-12T03:34:34.372Z,100.00
2022-12-12T03:37:24.457Z,100.00
2022-12-12T03:39:58.394Z,100.00
2022-12-12T03:42:40.568Z,100.00
2022-12-12T03:45:16.937Z,100.00
2022-12-12T03:48:23.899Z,100.00
2022-12-12T03:51:03.871Z,100.00
2022-12-12T03:53:33.416Z,100.00
2022-12-12T03:56:08.184Z,100.00
2022-12-12T03:58:41.255Z,100.00
2022-12-12T04:01:12.331Z,100.00
2022-12-12T04:04:09.628Z,100.00
2022-12-12T04:06:46.570Z,100.00
2022-12-12T04:09:37.063Z,100.00
2022-12-12T04:12:57.400Z,100.00
2022-12-12T04:15:52.007Z,100.00
2022-12-12T04:18:33.245Z,100.00
2022-12-12T04:21:21.621Z,100.00
2022-12-12T04:24:02.250Z,100.00
2022-12-12T04:26:44.639Z,100.00
2022-12-12T04:29:35.169Z,100.00
2022-12-12T04:32:11.089Z,100.00
2022-12-12T04:34:53.953Z,100.00
2022-12-12T04:37:47.372Z,100.00
2022-12-12T04:40:23.581Z,100.00
2022-12-12T04:43:00.921Z,100.00
2022-12-12T04:45:34.850Z,100.00
2022-12-12T04:48:05.453Z,100.00
2022-12-12T04:50:34.761Z,100.00
2022-12-12T04:53:07.785Z,100.00
2022-12-12T04:55:38.772Z,100.00
2022-12-12T04:58:07.456Z,100.00
2022-12-12T05:00:54.340Z,100.00
2022-12-12T05:03:47.294Z,100.00
2022-12-12T05:06:18.484Z,100.00
2022-12-12T05:08:47.706Z,100.00
2022-12-12T05:11:16.087Z,100.00
2022-12-12T05:13:43.808Z,100.00
2022-12-12T05:16:21.263Z,100.00
2022-12-12T05:18:48.953Z,100.00
2022-12-12T05:21:16.790Z,100.00
2022-12-12T05:23:44.141Z,100.00
2022-12-12T05:26:19.663Z,100.00
2022-12-12T05:28:46.754Z,100.00
2022-12-12T05:31:14.165Z,100.00
2022-12-12T05:33:42.125Z,100.00
2022-12-12T05:36:09.241Z,100.00
2022-12-12T05:38:39.377Z,100.00
2022-12-12T05:41:09.636Z,100.00
2022-12-12T05:43:37.490Z,100.00
2022-12-12T05:46:06.924Z,100.00
2022-12-12T05:48:35.084Z,100.00
2022-12-12T05:51:06.082Z,100.00
2022-12-12T05:53:41.986Z,100.00
2022-12-12T05:56:13.046Z,100.00
2022-12-12T05:58:44.379Z,100.00
2022-12-12T06:01:11.676Z,100.00
2022-12-12T06:03:39.502Z,100.00
2022-12-12T06:06:06.799Z,100.00
2022-12-12T06:08:34.782Z,100.00
2022-12-12T06:11:05.826Z,100.00
2022-12-12T06:13:32.971Z,100.00
2022-12-12T06:16:00.433Z,100.00
2022-12-12T06:18:29.501Z,100.00
2022-12-12T06:21:11.174Z,100.00
2022-12-12T06:23:41.050Z,100.00
2022-12-12T06:26:11.757Z,100.00
2022-12-12T06:28:39.891Z,100.00
2022-12-12T06:31:11.535Z,100.00
2022-12-12T06:33:39.486Z,100.00
2022-12-12T06:36:26.060Z,100.00
2022-12-12T06:39:00.204Z,100.00
2022-12-12T06:41:31.001Z,100.00
2022-12-12T06:43:58.646Z,100.00
2022-12-12T06:46:28.631Z,100.00
2022-12-12T06:48:57.065Z,100.00
2022-12-12T06:51:32.451Z,100.00
2022-12-12T06:54:01.922Z,100.00
2022-12-12T06:56:29.278Z,100.00
2022-12-12T06:58:59.493Z,100.00
2022-12-12T07:01:27.050Z,100.00
2022-12-12T07:03:54.614Z,99.40
2022-12-12T07:06:23.736Z,98.78
2022-12-12T07:08:52.015Z,99.34
2022-12-12T07:11:24.853Z,98.72
2022-12-12T07:13:54.223Z,99.01
2022-12-12T07:16:22.254Z,99.30
2022-12-12T07:18:52.414Z,98.22
2022-12-12T07:21:20.725Z,97.74
2022-12-12T07:23:48.490Z,97.27
2022-12-12T07:26:18.781Z,96.64
2022-12-12T07:28:46.575Z,95.54
2022-12-12T07:31:19.968Z,95.07
2022-12-12T07:33:47.961Z,96.11
2022-12-12T07:36:16.719Z,94.86
2022-12-12T07:38:44.862Z,94.80
2022-12-12T07:41:15.454Z,93.73
2022-12-12T07:43:45.046Z,94.09
2022-12-12T07:46:20.677Z,93.72
2022-12-12T07:48:49.841Z,93.66
2022-12-12T07:51:17.868Z,93.86
2022-12-12T07:53:45.840Z,92.46
2022-12-12T07:56:15.822Z,92.38
2022-12-12T07:58:43.853Z,92.30
2022-12-12T08:01:18.416Z,92.34
2022-12-12T08:03:46.992Z,91.11
2022-12-12T08:06:16.556Z,91.90
2022-12-12T08:08:44.816Z,90.96
2022-12-12T08:11:14.832Z,89.94
2022-12-12T08:13:43.104Z,89.25
2022-12-12T08:16:27.309Z,89.29
2022-12-12T08:18:58.957Z,88.79
2022-12-12T08:21:27.479Z,88.21
2022-12-12T08:23:59.634Z,88.63
2022-12-12T08:26:29.693Z,88.49
2022-12-12T08:28:57.774Z,87.92
2022-12-12T08:31:25.870Z,87.19
2022-12-12T08:33:53.584Z,85.90
2022-12-12T08:36:26.427Z,85.74
2022-12-12T08:38:53.833Z,85.05
2022-12-12T08:41:22.386Z,84.64
2022-12-12T08:43:50.400Z,84.42
2022-12-12T08:46:18.829Z,84.55
2022-12-12T08:48:48.571Z,84.33
2022-12-12T08:51:18.055Z,85.08
2022-12-12T08:53:47.097Z,83.62
2022-12-12T08:56:16.449Z,84.16
2022-12-12T08:58:44.571Z,85.29
2022-12-12T09:01:19.057Z,85.53
2022-12-12T09:03:48.186Z,85.21
2022-12-12T09:06:17.147Z,84.27
2022-12-12T09:08:45.951Z,84.68
2022-12-12T09:11:16.086Z,85.11
2022-12-12T09:13:44.159Z,84.00
2022-12-12T09:16:12.449Z,85.38
2022-12-12T09:18:47.795Z,84.72
2022-12-12T09:21:16.264Z,84.73
2022-12-12T09:23:43.501Z,86.97
2022-12-12T09:26:11.111Z,85.40
2022-12-12T09:28:39.499Z,84.66
2022-12-12T09:31:08.909Z,86.02
2022-12-12T09:33:36.946Z,86.44
2022-12-12T09:36:10.075Z,85.55
2022-12-12T09:38:39.742Z,84.96
2022-12-12T09:41:09.543Z,85.49
2022-12-12T09:43:56.510Z,82.87
2022-12-12T09:47:02.383Z,82.16
2022-12-12T09:49:56.069Z,82.02
2022-12-12T09:52:32.833Z,81.41
2022-12-12T09:55:21.286Z,81.61
2022-12-12T09:58:03.343Z,80.30
2022-12-12T10:00:36.629Z,80.66
2022-12-12T10:03:16.253Z,79.08
2022-12-12T10:06:01.890Z,79.35
2022-12-12T10:08:49.635Z,79.32
2022-12-12T10:11:46.071Z,79.35
2022-12-12T10:14:16.885Z,79.00
2022-12-12T10:16:55.686Z,79.98
2022-12-12T10:19:28.358Z,79.28
2022-12-12T10:22:02.586Z,79.50
2022-12-12T10:24:49.728Z,78.87
2022-12-12T10:27:18.535Z,79.39
2022-12-12T10:29:48.861Z,78.90
2022-12-12T10:32:47.054Z,78.15
2022-12-12T10:35:29.297Z,78.99
2022-12-12T10:38:24.271Z,78.79
2022-12-12T10:41:04.509Z,78.83
2022-12-12T10:43:41.333Z,79.07
2022-12-12T10:46:17.723Z,79.21
2022-12-12T10:48:47.753Z,78.85
2022-12-12T10:51:18.098Z,78.56
2022-12-12T10:53:48.393Z,78.40
2022-12-12T10:56:26.160Z,77.46
2022-12-12T10:59:02.453Z,78.67
2022-12-12T11:04:28.414Z,77.64
2022-12-12T11:06:56.486Z,78.11
2022-12-12T11:09:32.677Z,77.94
2022-12-12T11:12:12.759Z,78.30
2022-12-12T11:14:50.989Z,79.17
2022-12-12T11:17:33.204Z,78.84
2022-12-12T11:20:03.023Z,78.87
2022-12-12T11:22:33.321Z,77.67
2022-12-12T11:25:01.481Z,77.78
2022-12-12T11:27:36.410Z,77.86
2022-12-12T11:30:23.344Z,78.09
2022-12-12T11:32:58.803Z,78.62
2022-12-12T11:35:33.512Z,78.77
2022-12-12T11:38:06.221Z,78.40
2022-12-12T11:40:36.312Z,77.90
2022-12-12T11:43:30.405Z,78.87
2022-12-12T11:46:08.564Z,79.22
2022-12-12T11:48:57.669Z,79.05
2022-12-12T11:51:33.597Z,79.14
2022-12-12T11:54:03.054Z,79.90
2022-12-12T11:57:06.081Z,80.13
2022-12-12T11:59:49.352Z,79.87
2022-12-12T12:02:49.594Z,79.69
2022-12-12T12:05:27.164Z,80.48
2022-12-12T12:08:32.172Z,79.84
2022-12-12T12:11:10.821Z,79.34
2022-12-12T12:14:07.773Z,80.23
2022-12-12T12:17:09.008Z,79.11
2022-12-12T12:19:46.349Z,79.58
2022-12-12T12:22:39.209Z,78.59
2022-12-12T12:25:20.263Z,77.78
2022-12-12T12:28:08.705Z,77.86
2022-12-12T12:30:56.829Z,76.31
2022-12-12T12:33:45.144Z,74.40
2022-12-12T12:36:21.292Z,73.71
2022-12-12T12:38:57.232Z,73.06
2022-12-12T12:41:55.256Z,72.75
2022-12-12T12:44:44.127Z,71.06
2022-12-12T12:47:35.635Z,69.90
2022-12-12T12:50:23.868Z,71.58
2022-12-12T12:53:16.640Z,64.70
2022-12-12T12:55:51.153Z,63.46
2022-12-12T12:58:27.019Z,64.89
2022-12-12T13:01:05.548Z,67.04
2022-12-12T13:03:45.166Z,68.87
2022-12-12T13:06:23.529Z,70.49
2022-12-12T13:09:00.153Z,72.58
2022-12-12T13:11:42.291Z,73.58
2022-12-12T13:14:51.052Z,75.41
2022-12-12T13:17:28.214Z,76.22
2022-12-12T13:19:58.031Z,77.99
2022-12-12T13:22:46.254Z,79.11
2022-12-12T13:25:44.587Z,79.04
2022-12-12T13:28:19.758Z,79.88
2022-12-12T13:31:28.802Z,81.49
2022-12-12T13:34:09.042Z,82.00
2022-12-12T13:36:41.880Z,81.96
2022-12-12T13:39:22.254Z,81.87
2022-12-12T13:42:07.459Z,82.32
2022-12-12T13:44:50.477Z,83.04
2022-12-12T13:47:18.136Z,83.61
2022-12-12T13:50:09.650Z,83.76
2022-12-12T13:52:42.901Z,84.76
2022-12-12T13:55:13.148Z,84.92
2022-12-12T13:57:59.986Z,85.16
2022-12-12T14:00:34.108Z,84.92
2022-12-12T14:03:07.462Z,84.81
2022-12-12T14:05:44.541Z,85.13
2022-12-12T14:08:12.730Z,85.76
2022-12-12T14:10:51.794Z,86.16
2022-12-12T14:13:24.468Z,86.67
2022-12-12T14:15:57.900Z,87.50
2022-12-12T14:18:36.898Z,87.54
2022-12-12T14:21:10.251Z,87.99
2022-12-12T14:23:42.261Z,88.24
2022-12-12T14:26:28.729Z,89.48
2022-12-12T14:29:17.783Z,89.28
2022-12-12T14:31:58.899Z,90.01
2022-12-12T14:34:35.683Z,90.82
2022-12-12T14:37:20.105Z,90.91
2022-12-12T14:39:49.945Z,90.96
2022-12-12T14:43:19.998Z,91.46
2022-12-12T14:45:49.434Z,92.21
2022-12-12T14:48:34.495Z,93.05
2022-12-12T14:51:16.406Z,92.95
2022-12-12T14:53:53.282Z,93.25
2022-12-12T14:56:22.623Z,93.60
2022-12-12T14:58:59.581Z,94.21
2022-12-12T15:01:42.714Z,94.00
2022-12-12T15:04:14.283Z,93.93
2022-12-12T15:06:46.359Z,94.20
2022-12-12T15:09:16.597Z,94.14
2022-12-12T15:11:44.422Z,94.26
2022-12-12T15:14:23.839Z,94.43
2022-12-12T15:17:02.728Z,94.32
2022-12-12T15:19:39.784Z,94.88
2022-12-12T15:22:12.875Z,94.86
2022-12-12T15:24:40.405Z,95.44
2022-12-12T15:27:09.170Z,95.89
2022-12-12T15:29:38.072Z,96.29
2022-12-12T15:32:16.217Z,95.98
2022-12-12T15:34:46.471Z,96.01
2022-12-12T15:37:33.238Z,95.16
2022-12-12T15:40:12.321Z,95.53
2022-12-12T15:42:42.775Z,95.46
2022-12-12T15:45:22.022Z,94.57
2022-12-12T15:47:52.242Z,94.41
2022-12-12T15:50:47.252Z,94.18
2022-12-12T15:53:37.020Z,93.32
2022-12-12T15:56:22.899Z,93.20
2022-12-12T15:59:03.416Z,92.64
2022-12-12T16:01:31.220Z,93.00
2022-12-12T16:04:09.389Z,93.33
2022-12-12T16:06:45.865Z,93.41
2022-12-12T16:09:26.137Z,93.42
2022-12-12T16:11:59.887Z,93.11
2022-12-12T16:14:42.045Z,93.59
2022-12-12T16:17:20.497Z,94.14
2022-12-12T16:19:58.505Z,94.35
2022-12-12T16:22:33.504Z,94.42
2022-12-12T16:25:30.449Z,95.14
2022-12-12T16:28:21.622Z,95.64
2022-12-12T16:30:56.178Z,95.53
2022-12-12T16:33:28.743Z,95.67
2022-12-12T16:35:58.406Z,95.09
2022-12-12T16:38:26.355Z,94.95
2022-12-12T16:40:55.813Z,94.87
2022-12-12T16:43:24.425Z,95.17
2022-12-12T16:45:54.028Z,95.19
2022-12-12T16:48:24.131Z,94.27
2022-12-12T16:50:55.402Z,95.05
2022-12-12T16:53:22.370Z,94.82
2022-12-12T16:55:59.075Z,95.41
2022-12-12T16:58:33.665Z,95.68
2022-12-12T17:01:06.958Z,95.51
2022-12-12T17:03:38.924Z,95.75
2022-12-12T17:06:06.226Z,96.03
2022-12-12T17:08:33.202Z,96.11
2022-12-12T17:11:09.448Z,95.89
2022-12-12T17:13:41.361Z,95.96
2022-12-12T17:16:08.821Z,96.05
2022-12-12T17:18:36.090Z,96.32
2022-12-12T17:21:03.136Z,96.17
2022-12-12T17:23:31.146Z,96.03
2022-12-12T17:26:03.890Z,95.76
2022-12-12T17:28:34.356Z,96.19
2022-12-12T17:31:08.684Z,96.55
2022-12-12T17:33:45.923Z,96.50
2022-12-12T17:36:17.235Z,96.89
2022-12-12T17:38:45.101Z,96.65
2022-12-12T17:41:12.837Z,97.30
2022-12-12T17:43:42.496Z,97.66
2022-12-12T17:46:14.763Z,97.90
2022-12-12T17:48:44.531Z,97.59
2022-12-12T17:51:16.337Z,97.51
2022-12-12T17:53:44.654Z,96.99
2022-12-12T17:56:16.325Z,96.05
2022-12-12T17:58:46.131Z,96.14
2022-12-12T18:01:33.579Z,96.42
2022-12-12T18:04:03.110Z,93.89
2022-12-12T18:06:35.828Z,93.92
2022-12-12T18:09:04.769Z,92.94
2022-12-12T18:11:46.393Z,92.74
2022-12-12T18:14:15.786Z,93.02
2022-12-12T18:16:44.798Z,92.50
2022-12-12T18:19:12.117Z,93.75
2022-12-12T18:24:30.576Z,92.99
2022-12-12T18:27:07.045Z,93.19
2022-12-12T18:29:34.165Z,92.30
2022-12-12T18:32:01.384Z,92.31
2022-12-12T18:34:28.726Z,92.38
2022-12-12T18:36:56.119Z,91.99
2022-12-12T18:39:23.630Z,92.53
2022-12-12T18:41:52.352Z,92.65
2022-12-12T18:44:20.353Z,92.36
2022-12-12T18:46:52.169Z,91.72
2022-12-12T18:49:22.268Z,91.99
2022-12-12T18:51:51.616Z,91.90
2022-12-12T18:54:19.985Z,93.09
2022-12-12T18:56:47.851Z,93.16
2022-12-12T18:59:16.272Z,93.25
2022-12-12T19:01:43.913Z,93.72
2022-12-12T19:04:15.127Z,93.58
2022-12-12T19:06:44.933Z,93.41
2022-12-12T19:09:48.390Z,94.19
2022-12-12T19:12:16.662Z,94.64
2022-12-12T19:15:15.183Z,95.29
2022-12-12T19:17:30.703Z,96.93
2022-12-12T19:19:57.911Z,97.33
2022-12-12T19:22:44.283Z,97.76
2022-12-12T19:25:12.691Z,97.87
2022-12-12T19:27:39.822Z,98.43
2022-12-12T19:30:10.796Z,100.00
2022-12-12T19:32:37.934Z,100.00
2022-12-12T19:35:05.439Z,100.00
2022-12-12T19:37:32.722Z,100.00
2022-12-12T19:39:59.858Z,100.00
2022-12-12T19:42:31.647Z,100.00
2022-12-12T19:44:58.759Z,100.00
2022-12-12T19:47:27.707Z,100.00
2022-12-12T19:49:55.118Z,100.00
2022-12-12T19:52:22.040Z,100.00
2022-12-12T19:54:49.103Z,100.00
2022-12-12T19:57:16.232Z,100.00
2022-12-12T20:00:02.382Z,100.00
2022-12-12T20:02:37.521Z,100.00
2022-12-12T20:05:04.818Z,100.00
2022-12-12T20:07:31.898Z,100.00
2022-12-12T20:09:58.950Z,100.00
2022-12-12T20:12:26.169Z,100.00
2022-12-12T20:14:53.135Z,100.00
2022-12-12T20:17:20.365Z,100.00
2022-12-12T20:19:49.589Z,100.00
2022-12-12T20:22:16.754Z,100.00
2022-12-12T20:24:45.213Z,100.00
2022-12-12T20:27:15.977Z,100.00
2022-12-12T20:29:43.084Z,100.00
2022-12-12T20:32:18.510Z,100.00
2022-12-12T20:34:50.143Z,100.00
2022-12-12T20:37:20.180Z,100.00
2022-12-12T20:39:48.225Z,100.00
2022-12-12T20:42:18.018Z,100.00
2022-12-12T20:44:45.475Z,100.00
2022-12-12T20:47:17.207Z,100.00
2022-12-12T20:49:45.152Z,100.00
2022-12-12T20:52:12.838Z,100.00
2022-12-12T20:54:46.405Z,100.00
2022-12-12T20:57:13.397Z,100.00
2022-12-12T20:59:40.792Z,100.00
2022-12-12T21:02:20.200Z,100.00
2022-12-12T21:04:47.554Z,100.00
2022-12-12T21:07:17.346Z,100.00
2022-12-12T21:09:44.619Z,100.00
2022-12-12T21:12:11.853Z,100.00
2022-12-12T21:14:39.080Z,100.00
2022-12-12T21:17:06.179Z,100.00
2022-12-12T21:19:33.249Z,100.00
2022-12-12T21:22:00.452Z,100.00
2022-12-12T21:24:27.365Z,100.00
2022-12-12T21:26:54.584Z,100.00
2022-12-12T21:29:49.521Z,100.00
2022-12-12T21:32:16.413Z,100.00
2022-12-12T21:34:44.325Z,100.00
2022-12-12T21:37:11.406Z,100.00
2022-12-12T21:39:39.060Z,100.00
2022-12-12T21:42:06.251Z,100.00
2022-12-12T21:44:33.317Z,100.00
2022-12-12T21:47:00.932Z,100.00
2022-12-12T21:49:28.321Z,100.00
2022-12-12T21:52:00.730Z,100.00
2022-12-12T21:54:29.378Z,100.00
2022-12-12T21:56:58.193Z,100.00
2022-12-12T21:59:25.954Z,100.00
2022-12-12T22:02:00.663Z,100.00
2022-12-12T22:04:28.344Z,100.00
2022-12-12T22:06:57.567Z,100.00
2022-12-12T22:09:24.704Z,100.00
2022-12-12T22:11:52.486Z,100.00
2022-12-12T22:14:30.677Z,100.00
2022-12-12T22:17:00.084Z,100.00
2022-12-12T22:19:27.231Z,100.00
2022-12-12T22:21:54.466Z,100.00
2022-12-12T22:24:22.384Z,100.00
2022-12-12T22:26:50.445Z,100.00
2022-12-12T22:29:20.576Z,100.00
2022-12-12T22:31:50.320Z,100.00
2022-12-12T22:34:26.717Z,100.00
2022-12-12T22:36:57.783Z,100.00
2022-12-12T22:39:28.173Z,100.00
2022-12-12T22:41:56.239Z,100.00
2022-12-12T22:44:26.485Z,100.00
2022-12-12T22:46:55.000Z,100.00
2022-12-12T22:49:27.464Z,100.00
2022-12-12T22:51:58.645Z,100.00
2022-12-12T22:54:26.643Z,100.00
2022-12-12T22:56:55.996Z,100.00
2022-12-12T22:59:24.611Z,100.00
2022-12-12T23:01:51.869Z,100.00
2022-12-12T23:04:18.900Z,100.00
2022-12-12T23:06:46.679Z,100.00
2022-12-12T23:09:17.127Z,100.00
2022-12-12T23:11:45.400Z,100.00
2022-12-12T23:14:16.251Z,100.00
2022-12-12T23:16:44.768Z,100.00
2022-12-12T23:19:15.371Z,100.00
2022-12-12T23:21:42.948Z,100.00
2022-12-12T23:24:10.317Z,100.00
2022-12-12T23:26:38.805Z,100.00
2022-12-12T23:29:09.405Z,100.00
2022-12-12T23:31:38.816Z,100.00
2022-12-12T23:34:09.415Z,100.00
2022-12-12T23:36:36.506Z,100.00
2022-12-12T23:39:08.021Z,100.00
2022-12-12T23:41:36.749Z,100.00
2022-12-12T23:44:05.687Z,100.00
2022-12-12T23:46:33.873Z,100.00
2022-12-12T23:49:06.297Z,100.00
2022-12-12T23:51:34.948Z,100.00
2022-12-12T23:54:04.627Z,100.00
2022-12-12T23:56:32.383Z,100.00
2022-12-12T23:58:59.950Z,100.00
